sensor_id;sensor_type;location;lat;lon;timestamp;temperature;humidity
54082;DHT22;39986;50.770;0.266;2023-04-24T00:01:13;8.50;99.90
54082;DHT22;39986;50.770;0.266;2023-04-24T00:03:39;8.40;99.90
54082;DHT22;39986;50.770;0.266;2023-04-24T00:06:04;8.40;99.90
54082;DHT22;39986;50.770;0.266;2023-04-24T00:08:32;8.40;99.90
54082;DHT22;39986;50.770;0.266;2023-04-24T00:10:57;8.40;99.90
54082;DHT22;39986;50.770;0.266;2023-04-24T00:13:23;8.40;99.90
54082;DHT22;39986;50.770;0.266;2023-04-24T00:15:49;8.40;99.90
54082;DHT22;39986;50.770;0.266;2023-04-24T00:18:14;8.40;99.90
54082;DHT22;39986;50.770;0.266;2023-04-24T00:20:40;8.40;99.90
54082;DHT22;39986;50.770;0.266;2023-04-24T00:23:06;8.40;99.90
54082;DHT22;39986;50.770;0.266;2023-04-24T00:25:31;8.30;99.90
54082;DHT22;39986;50.770;0.266;2023-04-24T00:27:57;8.40;99.90
54082;DHT22;39986;50.770;0.266;2023-04-24T00:30:22;8.30;99.90
54082;DHT22;39986;50.770;0.266;2023-04-24T00:32:48;8.30;99.90
54082;DHT22;39986;50.770;0.266;2023-04-24T00:35:13;8.30;99.90
54082;DHT22;39986;50.770;0.266;2023-04-24T00:37:39;8.20;99.90
54082;DHT22;39986;50.770;0.266;2023-04-24T00:40:05;8.20;99.90
54082;DHT22;39986;50.770;0.266;2023-04-24T00:42:31;8.20;99.90
54082;DHT22;39986;50.770;0.266;2023-04-24T00:44:57;8.20;99.90
54082;DHT22;39986;50.770;0.266;2023-04-24T00:47:23;8.20;99.90
54082;DHT22;39986;50.770;0.266;2023-04-24T00:49:48;8.10;99.90
54082;DHT22;39986;50.770;0.266;2023-04-24T00:52:14;8.10;99.90
54082;DHT22;39986;50.770;0.266;2023-04-24T00:54:45;8.10;99.90
54082;DHT22;39986;50.770;0.266;2023-04-24T00:57:11;8.10;99.90
54082;DHT22;39986;50.770;0.266;2023-04-24T00:59:38;8.20;99.90
54082;DHT22;39986;50.770;0.266;2023-04-24T01:02:04;8.10;99.90
54082;DHT22;39986;50.770;0.266;2023-04-24T01:04:30;8.00;99.90
54082;DHT22;39986;50.770;0.266;2023-04-24T01:06:55;8.10;99.90
54082;DHT22;39986;50.770;0.266;2023-04-24T01:09:22;8.00;99.90
54082;DHT22;39986;50.770;0.266;2023-04-24T01:11:48;8.00;99.90
54082;DHT22;39986;50.770;0.266;2023-04-24T01:14:14;8.00;99.90
54082;DHT22;39986;50.770;0.266;2023-04-24T01:16:40;7.90;99.90
54082;DHT22;39986;50.770;0.266;2023-04-24T01:19:06;7.90;99.90
54082;DHT22;39986;50.770;0.266;2023-04-24T01:21:33;7.90;99.90
54082;DHT22;39986;50.770;0.266;2023-04-24T01:24:00;7.90;99.90
54082;DHT22;39986;50.770;0.266;2023-04-24T01:26:25;7.90;99.90
54082;DHT22;39986;50.770;0.266;2023-04-24T01:28:51;7.90;99.90
54082;DHT22;39986;50.770;0.266;2023-04-24T01:31:17;7.90;99.90
54082;DHT22;39986;50.770;0.266;2023-04-24T01:33:43;7.90;99.90
54082;DHT22;39986;50.770;0.266;2023-04-24T01:36:09;7.90;99.90
54082;DHT22;39986;50.770;0.266;2023-04-24T01:38:35;7.90;99.90
54082;DHT22;39986;50.770;0.266;2023-04-24T01:41:01;8.00;99.90
54082;DHT22;39986;50.770;0.266;2023-04-24T01:43:26;8.00;99.90
54082;DHT22;39986;50.770;0.266;2023-04-24T01:45:52;7.90;99.90
54082;DHT22;39986;50.770;0.266;2023-04-24T01:48:17;7.90;99.90
54082;DHT22;39986;50.770;0.266;2023-04-24T01:50:43;7.90;99.90
54082;DHT22;39986;50.770;0.266;2023-04-24T01:53:08;7.90;99.90
54082;DHT22;39986;50.770;0.266;2023-04-24T01:55:34;7.90;99.90
54082;DHT22;39986;50.770;0.266;2023-04-24T01:57:59;8.00;99.90
54082;DHT22;39986;50.770;0.266;2023-04-24T02:00:25;7.90;99.90
54082;DHT22;39986;50.770;0.266;2023-04-24T02:02:51;7.90;99.90
54082;DHT22;39986;50.770;0.266;2023-04-24T02:05:16;7.90;99.90
54082;DHT22;39986;50.770;0.266;2023-04-24T02:07:42;7.80;99.90
54082;DHT22;39986;50.770;0.266;2023-04-24T02:10:07;7.80;99.90
54082;DHT22;39986;50.770;0.266;2023-04-24T02:12:33;7.80;99.90
54082;DHT22;39986;50.770;0.266;2023-04-24T02:14:59;7.80;99.90
54082;DHT22;39986;50.770;0.266;2023-04-24T02:17:24;7.70;99.90
54082;DHT22;39986;50.770;0.266;2023-04-24T02:19:50;7.70;99.90
54082;DHT22;39986;50.770;0.266;2023-04-24T02:22:15;7.80;99.90
54082;DHT22;39986;50.770;0.266;2023-04-24T02:24:41;7.80;99.90
54082;DHT22;39986;50.770;0.266;2023-04-24T02:27:06;7.90;99.90
54082;DHT22;39986;50.770;0.266;2023-04-24T02:29:32;7.80;99.90
54082;DHT22;39986;50.770;0.266;2023-04-24T02:31:58;7.80;99.90
54082;DHT22;39986;50.770;0.266;2023-04-24T02:34:23;7.80;99.90
54082;DHT22;39986;50.770;0.266;2023-04-24T02:36:49;7.80;99.90
54082;DHT22;39986;50.770;0.266;2023-04-24T02:39:14;7.80;99.90
54082;DHT22;39986;50.770;0.266;2023-04-24T02:41:42;7.80;99.90
54082;DHT22;39986;50.770;0.266;2023-04-24T02:44:07;7.70;99.90
54082;DHT22;39986;50.770;0.266;2023-04-24T02:46:33;7.70;99.90
54082;DHT22;39986;50.770;0.266;2023-04-24T02:48:58;7.60;99.90
54082;DHT22;39986;50.770;0.266;2023-04-24T02:51:24;7.60;99.90
54082;DHT22;39986;50.770;0.266;2023-04-24T02:53:50;7.60;99.90
54082;DHT22;39986;50.770;0.266;2023-04-24T02:56:15;7.70;99.90
54082;DHT22;39986;50.770;0.266;2023-04-24T02:58:41;7.90;99.90
54082;DHT22;39986;50.770;0.266;2023-04-24T03:01:07;7.80;99.90
54082;DHT22;39986;50.770;0.266;2023-04-24T03:03:35;8.00;99.90
54082;DHT22;39986;50.770;0.266;2023-04-24T03:06:00;7.90;99.90
54082;DHT22;39986;50.770;0.266;2023-04-24T03:08:26;7.80;99.90
54082;DHT22;39986;50.770;0.266;2023-04-24T03:10:52;7.80;99.90
54082;DHT22;39986;50.770;0.266;2023-04-24T03:13:18;7.80;99.90
54082;DHT22;39986;50.770;0.266;2023-04-24T03:15:43;7.70;99.90
54082;DHT22;39986;50.770;0.266;2023-04-24T03:18:10;7.70;99.90
54082;DHT22;39986;50.770;0.266;2023-04-24T03:20:35;7.60;99.90
54082;DHT22;39986;50.770;0.266;2023-04-24T03:23:02;7.50;99.90
54082;DHT22;39986;50.770;0.266;2023-04-24T03:25:28;7.60;99.90
54082;DHT22;39986;50.770;0.266;2023-04-24T03:27:53;7.60;99.90
54082;DHT22;39986;50.770;0.266;2023-04-24T03:30:20;7.60;99.90
54082;DHT22;39986;50.770;0.266;2023-04-24T03:32:45;7.60;99.90
54082;DHT22;39986;50.770;0.266;2023-04-24T03:35:11;7.50;99.90
54082;DHT22;39986;50.770;0.266;2023-04-24T03:37:36;7.60;99.90
54082;DHT22;39986;50.770;0.266;2023-04-24T03:40:02;7.50;99.90
54082;DHT22;39986;50.770;0.266;2023-04-24T03:42:28;7.50;99.90
54082;DHT22;39986;50.770;0.266;2023-04-24T03:44:53;7.50;99.90
54082;DHT22;39986;50.770;0.266;2023-04-24T03:47:19;7.50;99.90
54082;DHT22;39986;50.770;0.266;2023-04-24T03:49:44;7.50;99.90
54082;DHT22;39986;50.770;0.266;2023-04-24T03:52:10;7.50;99.90
54082;DHT22;39986;50.770;0.266;2023-04-24T03:54:35;7.50;99.90
54082;DHT22;39986;50.770;0.266;2023-04-24T03:57:01;7.60;99.90
54082;DHT22;39986;50.770;0.266;2023-04-24T03:59:26;7.60;99.90
54082;DHT22;39986;50.770;0.266;2023-04-24T04:01:52;7.70;99.90
54082;DHT22;39986;50.770;0.266;2023-04-24T04:04:17;7.70;99.90
54082;DHT22;39986;50.770;0.266;2023-04-24T04:06:43;7.70;99.90
54082;DHT22;39986;50.770;0.266;2023-04-24T04:09:09;7.70;99.90
54082;DHT22;39986;50.770;0.266;2023-04-24T04:11:35;7.80;99.90
54082;DHT22;39986;50.770;0.266;2023-04-24T04:14:01;7.80;99.90
54082;DHT22;39986;50.770;0.266;2023-04-24T04:16:26;7.80;99.90
54082;DHT22;39986;50.770;0.266;2023-04-24T04:18:52;7.70;99.90
54082;DHT22;39986;50.770;0.266;2023-04-24T04:21:17;7.70;99.90
54082;DHT22;39986;50.770;0.266;2023-04-24T04:23:43;7.60;99.90
54082;DHT22;39986;50.770;0.266;2023-04-24T04:26:09;7.50;99.90
54082;DHT22;39986;50.770;0.266;2023-04-24T04:28:34;7.50;99.90
54082;DHT22;39986;50.770;0.266;2023-04-24T04:31:00;7.50;99.90
54082;DHT22;39986;50.770;0.266;2023-04-24T04:33:26;7.50;99.90
54082;DHT22;39986;50.770;0.266;2023-04-24T04:35:51;7.50;99.90
54082;DHT22;39986;50.770;0.266;2023-04-24T04:38:17;7.60;99.90
54082;DHT22;39986;50.770;0.266;2023-04-24T04:40:43;7.50;99.90
54082;DHT22;39986;50.770;0.266;2023-04-24T04:43:09;7.50;99.90
54082;DHT22;39986;50.770;0.266;2023-04-24T04:45:36;7.50;99.90
54082;DHT22;39986;50.770;0.266;2023-04-24T04:48:02;7.50;99.90
54082;DHT22;39986;50.770;0.266;2023-04-24T04:50:28;7.50;99.90
54082;DHT22;39986;50.770;0.266;2023-04-24T04:52:54;7.70;99.90
54082;DHT22;39986;50.770;0.266;2023-04-24T04:55:19;7.50;99.90
54082;DHT22;39986;50.770;0.266;2023-04-24T04:57:48;7.50;99.90
54082;DHT22;39986;50.770;0.266;2023-04-24T05:00:13;7.50;99.90
54082;DHT22;39986;50.770;0.266;2023-04-24T05:02:39;7.50;99.90
54082;DHT22;39986;50.770;0.266;2023-04-24T05:05:05;7.40;99.90
54082;DHT22;39986;50.770;0.266;2023-04-24T05:07:31;7.40;99.90
54082;DHT22;39986;50.770;0.266;2023-04-24T05:09:57;7.40;99.90
54082;DHT22;39986;50.770;0.266;2023-04-24T05:12:22;7.40;99.90
54082;DHT22;39986;50.770;0.266;2023-04-24T05:14:48;7.40;99.90
54082;DHT22;39986;50.770;0.266;2023-04-24T05:17:13;7.40;99.90
54082;DHT22;39986;50.770;0.266;2023-04-24T05:19:39;7.50;99.90
54082;DHT22;39986;50.770;0.266;2023-04-24T05:22:04;7.40;99.90
54082;DHT22;39986;50.770;0.266;2023-04-24T05:24:34;7.40;99.90
54082;DHT22;39986;50.770;0.266;2023-04-24T05:27:00;7.40;99.90
54082;DHT22;39986;50.770;0.266;2023-04-24T05:29:26;7.50;99.90
54082;DHT22;39986;50.770;0.266;2023-04-24T05:31:51;7.80;99.90
54082;DHT22;39986;50.770;0.266;2023-04-24T05:34:17;7.80;99.90
54082;DHT22;39986;50.770;0.266;2023-04-24T05:36:43;7.90;99.90
54082;DHT22;39986;50.770;0.266;2023-04-24T05:39:08;8.20;99.90
54082;DHT22;39986;50.770;0.266;2023-04-24T05:41:34;8.60;99.90
54082;DHT22;39986;50.770;0.266;2023-04-24T05:44:00;8.90;99.90
54082;DHT22;39986;50.770;0.266;2023-04-24T05:46:25;9.10;99.90
54082;DHT22;39986;50.770;0.266;2023-04-24T05:48:51;9.50;99.90
54082;DHT22;39986;50.770;0.266;2023-04-24T05:51:16;9.70;99.90
54082;DHT22;39986;50.770;0.266;2023-04-24T05:53:42;9.80;99.90
54082;DHT22;39986;50.770;0.266;2023-04-24T05:56:08;9.90;99.90
54082;DHT22;39986;50.770;0.266;2023-04-24T05:58:33;9.80;99.90
54082;DHT22;39986;50.770;0.266;2023-04-24T06:00:59;9.60;99.90
54082;DHT22;39986;50.770;0.266;2023-04-24T06:03:26;9.50;99.90
54082;DHT22;39986;50.770;0.266;2023-04-24T06:05:52;9.50;99.90
54082;DHT22;39986;50.770;0.266;2023-04-24T06:08:18;9.40;99.90
54082;DHT22;39986;50.770;0.266;2023-04-24T06:10:43;9.40;99.90
54082;DHT22;39986;50.770;0.266;2023-04-24T06:13:09;9.50;99.90
54082;DHT22;39986;50.770;0.266;2023-04-24T06:15:35;9.40;99.90
54082;DHT22;39986;50.770;0.266;2023-04-24T06:18:00;9.50;99.90
54082;DHT22;39986;50.770;0.266;2023-04-24T06:20:26;9.60;99.90
54082;DHT22;39986;50.770;0.266;2023-04-24T06:22:51;9.70;99.90
54082;DHT22;39986;50.770;0.266;2023-04-24T06:25:17;9.70;99.90
54082;DHT22;39986;50.770;0.266;2023-04-24T06:27:43;9.90;99.90
54082;DHT22;39986;50.770;0.266;2023-04-24T06:30:09;9.90;99.90
54082;DHT22;39986;50.770;0.266;2023-04-24T06:32:34;10.00;99.90
54082;DHT22;39986;50.770;0.266;2023-04-24T06:35:00;10.10;99.90
54082;DHT22;39986;50.770;0.266;2023-04-24T06:37:25;10.10;99.90
54082;DHT22;39986;50.770;0.266;2023-04-24T06:39:51;10.20;99.90
54082;DHT22;39986;50.770;0.266;2023-04-24T06:42:16;10.30;99.90
54082;DHT22;39986;50.770;0.266;2023-04-24T06:44:42;10.40;99.90
54082;DHT22;39986;50.770;0.266;2023-04-24T06:47:08;10.80;99.90
54082;DHT22;39986;50.770;0.266;2023-04-24T06:49:37;11.40;99.90
54082;DHT22;39986;50.770;0.266;2023-04-24T06:52:02;11.70;99.90
54082;DHT22;39986;50.770;0.266;2023-04-24T06:54:28;11.80;99.90
54082;DHT22;39986;50.770;0.266;2023-04-24T06:56:54;11.70;99.90
54082;DHT22;39986;50.770;0.266;2023-04-24T06:59:20;11.80;99.90
54082;DHT22;39986;50.770;0.266;2023-04-24T07:01:46;12.00;99.90
54082;DHT22;39986;50.770;0.266;2023-04-24T07:04:11;12.00;99.90
54082;DHT22;39986;50.770;0.266;2023-04-24T07:06:38;11.90;99.90
54082;DHT22;39986;50.770;0.266;2023-04-24T07:09:04;11.80;99.90
54082;DHT22;39986;50.770;0.266;2023-04-24T07:11:30;11.70;99.90
54082;DHT22;39986;50.770;0.266;2023-04-24T07:13:55;11.60;99.90
54082;DHT22;39986;50.770;0.266;2023-04-24T07:16:21;11.60;99.90
54082;DHT22;39986;50.770;0.266;2023-04-24T07:18:47;11.60;99.90
54082;DHT22;39986;50.770;0.266;2023-04-24T07:21:12;11.70;99.90
54082;DHT22;39986;50.770;0.266;2023-04-24T07:23:38;11.70;99.90
54082;DHT22;39986;50.770;0.266;2023-04-24T07:26:03;11.70;99.90
54082;DHT22;39986;50.770;0.266;2023-04-24T07:28:29;11.80;99.90
54082;DHT22;39986;50.770;0.266;2023-04-24T07:30:57;11.90;99.90
54082;DHT22;39986;50.770;0.266;2023-04-24T07:33:24;12.00;99.90
54082;DHT22;39986;50.770;0.266;2023-04-24T07:35:49;12.00;99.90
54082;DHT22;39986;50.770;0.266;2023-04-24T07:38:15;12.10;99.90
54082;DHT22;39986;50.770;0.266;2023-04-24T07:40:41;12.10;99.90
54082;DHT22;39986;50.770;0.266;2023-04-24T07:43:07;12.20;99.90
54082;DHT22;39986;50.770;0.266;2023-04-24T07:45:32;12.10;99.90
54082;DHT22;39986;50.770;0.266;2023-04-24T07:48:02;12.20;99.90
54082;DHT22;39986;50.770;0.266;2023-04-24T07:50:27;12.30;99.90
54082;DHT22;39986;50.770;0.266;2023-04-24T07:52:53;12.40;99.90
54082;DHT22;39986;50.770;0.266;2023-04-24T07:55:18;12.60;99.90
54082;DHT22;39986;50.770;0.266;2023-04-24T07:57:44;12.60;99.90
54082;DHT22;39986;50.770;0.266;2023-04-24T08:00:10;12.80;99.90
54082;DHT22;39986;50.770;0.266;2023-04-24T08:02:36;12.80;99.90
54082;DHT22;39986;50.770;0.266;2023-04-24T08:05:01;13.00;99.90
54082;DHT22;39986;50.770;0.266;2023-04-24T08:07:28;13.10;99.90
54082;DHT22;39986;50.770;0.266;2023-04-24T08:09:54;13.20;99.90
54082;DHT22;39986;50.770;0.266;2023-04-24T08:12:20;13.20;99.90
54082;DHT22;39986;50.770;0.266;2023-04-24T08:14:45;13.40;99.90
54082;DHT22;39986;50.770;0.266;2023-04-24T08:17:11;13.50;99.90
54082;DHT22;39986;50.770;0.266;2023-04-24T08:19:36;13.50;99.90
54082;DHT22;39986;50.770;0.266;2023-04-24T08:22:02;13.70;99.90
54082;DHT22;39986;50.770;0.266;2023-04-24T08:24:29;13.90;99.90
54082;DHT22;39986;50.770;0.266;2023-04-24T08:26:54;14.20;99.90
54082;DHT22;39986;50.770;0.266;2023-04-24T08:29:22;14.60;99.90
54082;DHT22;39986;50.770;0.266;2023-04-24T08:31:47;14.80;99.90
54082;DHT22;39986;50.770;0.266;2023-04-24T08:34:13;15.00;99.90
54082;DHT22;39986;50.770;0.266;2023-04-24T08:36:38;14.90;99.90
54082;DHT22;39986;50.770;0.266;2023-04-24T08:39:06;14.60;99.90
54082;DHT22;39986;50.770;0.266;2023-04-24T08:41:32;14.50;99.90
54082;DHT22;39986;50.770;0.266;2023-04-24T08:43:59;14.30;99.90
54082;DHT22;39986;50.770;0.266;2023-04-24T08:46:24;14.10;99.90
54082;DHT22;39986;50.770;0.266;2023-04-24T08:48:51;13.70;99.90
54082;DHT22;39986;50.770;0.266;2023-04-24T08:51:17;13.30;99.90
54082;DHT22;39986;50.770;0.266;2023-04-24T08:53:43;12.90;99.90
54082;DHT22;39986;50.770;0.266;2023-04-24T08:56:08;13.00;99.90
54082;DHT22;39986;50.770;0.266;2023-04-24T08:58:34;12.90;99.90
54082;DHT22;39986;50.770;0.266;2023-04-24T09:01:00;12.90;99.90
54082;DHT22;39986;50.770;0.266;2023-04-24T09:03:27;12.80;99.90
54082;DHT22;39986;50.770;0.266;2023-04-24T09:05:52;12.90;99.90
54082;DHT22;39986;50.770;0.266;2023-04-24T09:08:20;12.90;99.90
54082;DHT22;39986;50.770;0.266;2023-04-24T09:10:47;13.10;99.90
54082;DHT22;39986;50.770;0.266;2023-04-24T09:13:13;13.20;99.90
54082;DHT22;39986;50.770;0.266;2023-04-24T09:15:39;13.50;99.90
54082;DHT22;39986;50.770;0.266;2023-04-24T09:18:05;13.60;99.90
54082;DHT22;39986;50.770;0.266;2023-04-24T09:20:31;13.10;99.90
54082;DHT22;39986;50.770;0.266;2023-04-24T09:22:57;13.00;99.90
54082;DHT22;39986;50.770;0.266;2023-04-24T09:25:23;13.10;99.90
54082;DHT22;39986;50.770;0.266;2023-04-24T09:27:53;13.00;99.90
54082;DHT22;39986;50.770;0.266;2023-04-24T09:30:22;13.20;99.90
54082;DHT22;39986;50.770;0.266;2023-04-24T09:32:48;13.10;99.90
54082;DHT22;39986;50.770;0.266;2023-04-24T09:35:14;12.80;99.90
54082;DHT22;39986;50.770;0.266;2023-04-24T09:37:44;12.80;99.90
54082;DHT22;39986;50.770;0.266;2023-04-24T09:40:19;13.00;99.90
54082;DHT22;39986;50.770;0.266;2023-04-24T09:42:46;13.00;99.90
54082;DHT22;39986;50.770;0.266;2023-04-24T09:45:12;13.00;99.90
54082;DHT22;39986;50.770;0.266;2023-04-24T09:47:38;13.40;99.90
54082;DHT22;39986;50.770;0.266;2023-04-24T09:50:10;13.50;99.90
54082;DHT22;39986;50.770;0.266;2023-04-24T09:52:39;13.60;99.90
54082;DHT22;39986;50.770;0.266;2023-04-24T09:55:10;13.80;99.90
54082;DHT22;39986;50.770;0.266;2023-04-24T09:57:35;13.90;99.90
54082;DHT22;39986;50.770;0.266;2023-04-24T10:00:01;14.00;99.90
54082;DHT22;39986;50.770;0.266;2023-04-24T10:02:27;14.00;99.90
54082;DHT22;39986;50.770;0.266;2023-04-24T10:04:57;13.90;99.90
54082;DHT22;39986;50.770;0.266;2023-04-24T10:07:27;13.70;99.90
54082;DHT22;39986;50.770;0.266;2023-04-24T10:09:52;13.80;99.90
54082;DHT22;39986;50.770;0.266;2023-04-24T10:12:18;14.00;99.90
54082;DHT22;39986;50.770;0.266;2023-04-24T10:14:45;14.20;99.90
54082;DHT22;39986;50.770;0.266;2023-04-24T10:17:11;14.30;99.90
54082;DHT22;39986;50.770;0.266;2023-04-24T10:19:37;14.40;99.90
54082;DHT22;39986;50.770;0.266;2023-04-24T10:22:03;14.40;99.90
54082;DHT22;39986;50.770;0.266;2023-04-24T10:24:29;14.30;99.90
54082;DHT22;39986;50.770;0.266;2023-04-24T10:26:55;14.40;99.90
54082;DHT22;39986;50.770;0.266;2023-04-24T10:29:22;14.60;99.90
54082;DHT22;39986;50.770;0.266;2023-04-24T10:31:48;14.90;99.90
54082;DHT22;39986;50.770;0.266;2023-04-24T10:34:15;15.10;99.90
54082;DHT22;39986;50.770;0.266;2023-04-24T10:37:14;14.90;99.90
54082;DHT22;39986;50.770;0.266;2023-04-24T10:39:32;15.10;99.90
54082;DHT22;39986;50.770;0.266;2023-04-24T10:41:58;15.20;99.90
54082;DHT22;39986;50.770;0.266;2023-04-24T10:44:24;15.20;99.90
54082;DHT22;39986;50.770;0.266;2023-04-24T10:46:52;15.10;99.90
54082;DHT22;39986;50.770;0.266;2023-04-24T10:49:19;15.60;99.90
54082;DHT22;39986;50.770;0.266;2023-04-24T10:51:53;16.60;99.90
54082;DHT22;39986;50.770;0.266;2023-04-24T10:54:22;18.10;99.90
54082;DHT22;39986;50.770;0.266;2023-04-24T10:56:49;19.90;99.90
54082;DHT22;39986;50.770;0.266;2023-04-24T10:59:23;21.70;99.90
54082;DHT22;39986;50.770;0.266;2023-04-24T11:01:52;22.60;99.90
54082;DHT22;39986;50.770;0.266;2023-04-24T11:04:22;23.00;99.90
54082;DHT22;39986;50.770;0.266;2023-04-24T11:06:53;22.10;99.90
54082;DHT22;39986;50.770;0.266;2023-04-24T11:09:19;20.80;99.90
54082;DHT22;39986;50.770;0.266;2023-04-24T11:11:46;20.70;99.90
54082;DHT22;39986;50.770;0.266;2023-04-24T11:14:15;21.90;99.90
54082;DHT22;39986;50.770;0.266;2023-04-24T11:21:45;21.60;99.90
54082;DHT22;39986;50.770;0.266;2023-04-24T11:24:31;21.60;99.90
54082;DHT22;39986;50.770;0.266;2023-04-24T11:29:46;18.70;99.90
54082;DHT22;39986;50.770;0.266;2023-04-24T11:32:33;17.10;99.90
54082;DHT22;39986;50.770;0.266;2023-04-24T11:35:00;16.50;99.90
54082;DHT22;39986;50.770;0.266;2023-04-24T11:37:27;17.60;99.90
54082;DHT22;39986;50.770;0.266;2023-04-24T11:39:53;19.20;99.90
54082;DHT22;39986;50.770;0.266;2023-04-24T11:42:19;19.80;99.90
54082;DHT22;39986;50.770;0.266;2023-04-24T11:44:45;19.50;99.90
54082;DHT22;39986;50.770;0.266;2023-04-24T11:47:12;18.50;99.90
54082;DHT22;39986;50.770;0.266;2023-04-24T11:49:38;18.10;99.90
54082;DHT22;39986;50.770;0.266;2023-04-24T11:52:04;17.50;99.90
54082;DHT22;39986;50.770;0.266;2023-04-24T11:54:29;16.90;99.90
54082;DHT22;39986;50.770;0.266;2023-04-24T11:56:56;18.60;99.90
54082;DHT22;39986;50.770;0.266;2023-04-24T11:59:21;19.60;99.90
54082;DHT22;39986;50.770;0.266;2023-04-24T12:01:47;18.80;99.90
54082;DHT22;39986;50.770;0.266;2023-04-24T12:04:14;18.80;99.90
54082;DHT22;39986;50.770;0.266;2023-04-24T12:06:58;19.00;99.90
54082;DHT22;39986;50.770;0.266;2023-04-24T12:09:24;19.30;99.90
54082;DHT22;39986;50.770;0.266;2023-04-24T12:11:52;19.10;99.90
54082;DHT22;39986;50.770;0.266;2023-04-24T12:14:18;19.10;99.90
54082;DHT22;39986;50.770;0.266;2023-04-24T12:16:47;21.10;99.90
54082;DHT22;39986;50.770;0.266;2023-04-24T12:19:17;23.80;99.90
54082;DHT22;39986;50.770;0.266;2023-04-24T12:21:42;24.40;99.90
54082;DHT22;39986;50.770;0.266;2023-04-24T12:24:08;24.50;99.70
54082;DHT22;39986;50.770;0.266;2023-04-24T12:26:34;23.10;99.90
54082;DHT22;39986;50.770;0.266;2023-04-24T12:29:01;21.70;99.90
54082;DHT22;39986;50.770;0.266;2023-04-24T12:31:26;20.60;99.90
54082;DHT22;39986;50.770;0.266;2023-04-24T12:33:54;19.70;99.90
54082;DHT22;39986;50.770;0.266;2023-04-24T12:36:20;20.20;99.90
54082;DHT22;39986;50.770;0.266;2023-04-24T12:38:46;21.70;99.90
54082;DHT22;39986;50.770;0.266;2023-04-24T12:41:17;22.50;99.90
54082;DHT22;39986;50.770;0.266;2023-04-24T12:43:53;21.90;99.90
54082;DHT22;39986;50.770;0.266;2023-04-24T12:46:20;21.60;99.90
54082;DHT22;39986;50.770;0.266;2023-04-24T12:48:45;20.70;99.90
54082;DHT22;39986;50.770;0.266;2023-04-24T12:51:11;20.30;99.90
54082;DHT22;39986;50.770;0.266;2023-04-24T12:53:37;20.50;99.90
54082;DHT22;39986;50.770;0.266;2023-04-24T12:56:02;20.10;99.90
54082;DHT22;39986;50.770;0.266;2023-04-24T12:58:28;19.50;99.90
54082;DHT22;39986;50.770;0.266;2023-04-24T13:00:54;18.60;99.90
54082;DHT22;39986;50.770;0.266;2023-04-24T13:03:19;17.60;99.90
54082;DHT22;39986;50.770;0.266;2023-04-24T13:05:45;17.30;99.90
54082;DHT22;39986;50.770;0.266;2023-04-24T13:08:11;18.30;99.90
54082;DHT22;39986;50.770;0.266;2023-04-24T13:10:38;19.50;99.90
54082;DHT22;39986;50.770;0.266;2023-04-24T13:13:03;21.50;99.90
54082;DHT22;39986;50.770;0.266;2023-04-24T13:15:29;24.70;99.90
54082;DHT22;39986;50.770;0.266;2023-04-24T13:17:54;27.30;97.70
54082;DHT22;39986;50.770;0.266;2023-04-24T13:20:20;28.20;94.10
54082;DHT22;39986;50.770;0.266;2023-04-24T13:22:46;28.20;92.80
54082;DHT22;39986;50.770;0.266;2023-04-24T13:25:11;26.70;95.20
54082;DHT22;39986;50.770;0.266;2023-04-24T13:27:40;26.30;95.90
54082;DHT22;39986;50.770;0.266;2023-04-24T13:30:05;26.10;96.40
54082;DHT22;39986;50.770;0.266;2023-04-24T13:32:31;25.80;96.20
54082;DHT22;39986;50.770;0.266;2023-04-24T13:34:57;25.70;96.10
54082;DHT22;39986;50.770;0.266;2023-04-24T13:37:23;26.00;94.80
54082;DHT22;39986;50.770;0.266;2023-04-24T13:39:48;25.10;96.90
54082;DHT22;39986;50.770;0.266;2023-04-24T13:42:14;24.50;99.20
54082;DHT22;39986;50.770;0.266;2023-04-24T13:44:39;24.20;99.90
54082;DHT22;39986;50.770;0.266;2023-04-24T13:47:05;23.70;99.90
54082;DHT22;39986;50.770;0.266;2023-04-24T13:49:31;22.50;99.90
54082;DHT22;39986;50.770;0.266;2023-04-24T13:51:56;21.50;99.90
54082;DHT22;39986;50.770;0.266;2023-04-24T13:54:22;20.60;99.90
54082;DHT22;39986;50.770;0.266;2023-04-24T13:56:51;20.70;99.90
54082;DHT22;39986;50.770;0.266;2023-04-24T13:59:17;20.70;99.90
54082;DHT22;39986;50.770;0.266;2023-04-24T14:01:42;21.80;99.90
54082;DHT22;39986;50.770;0.266;2023-04-24T14:04:10;24.00;99.90
54082;DHT22;39986;50.770;0.266;2023-04-24T14:06:36;25.60;99.90
54082;DHT22;39986;50.770;0.266;2023-04-24T14:09:01;24.70;99.90
54082;DHT22;39986;50.770;0.266;2023-04-24T14:11:27;23.30;99.90
54082;DHT22;39986;50.770;0.266;2023-04-24T14:13:53;22.10;99.90
54082;DHT22;39986;50.770;0.266;2023-04-24T14:16:19;23.00;99.90
54082;DHT22;39986;50.770;0.266;2023-04-24T14:18:45;25.40;99.90
54082;DHT22;39986;50.770;0.266;2023-04-24T14:21:11;26.80;98.70
54082;DHT22;39986;50.770;0.266;2023-04-24T14:23:36;28.00;97.50
54082;DHT22;39986;50.770;0.266;2023-04-24T14:26:02;28.10;96.20
54082;DHT22;39986;50.770;0.266;2023-04-24T14:28:27;27.90;95.80
54082;DHT22;39986;50.770;0.266;2023-04-24T14:30:53;27.90;95.60
54082;DHT22;39986;50.770;0.266;2023-04-24T14:33:18;27.40;96.10
54082;DHT22;39986;50.770;0.266;2023-04-24T14:35:44;27.50;96.60
54082;DHT22;39986;50.770;0.266;2023-04-24T14:38:10;26.50;97.20
54082;DHT22;39986;50.770;0.266;2023-04-24T14:40:36;25.30;99.00
54082;DHT22;39986;50.770;0.266;2023-04-24T14:43:01;25.00;99.70
54082;DHT22;39986;50.770;0.266;2023-04-24T14:45:27;25.00;99.90
54082;DHT22;39986;50.770;0.266;2023-04-24T14:47:53;24.70;99.90
54082;DHT22;39986;50.770;0.266;2023-04-24T14:50:18;25.60;99.90
54082;DHT22;39986;50.770;0.266;2023-04-24T14:52:44;25.80;98.70
54082;DHT22;39986;50.770;0.266;2023-04-24T14:55:10;25.50;99.10
54082;DHT22;39986;50.770;0.266;2023-04-24T14:57:35;23.80;99.90
54082;DHT22;39986;50.770;0.266;2023-04-24T15:00:05;21.90;99.90
54082;DHT22;39986;50.770;0.266;2023-04-24T15:02:32;20.50;99.90
54082;DHT22;39986;50.770;0.266;2023-04-24T15:04:58;20.90;99.90
54082;DHT22;39986;50.770;0.266;2023-04-24T15:07:24;22.80;99.90
54082;DHT22;39986;50.770;0.266;2023-04-24T15:09:49;24.10;99.90
54082;DHT22;39986;50.770;0.266;2023-04-24T15:12:15;24.70;98.60
54082;DHT22;39986;50.770;0.266;2023-04-24T15:14:40;23.80;99.00
54082;DHT22;39986;50.770;0.266;2023-04-24T15:17:06;23.00;99.90
54082;DHT22;39986;50.770;0.266;2023-04-24T15:19:32;20.80;99.90
54082;DHT22;39986;50.770;0.266;2023-04-24T15:21:57;19.10;99.90
54082;DHT22;39986;50.770;0.266;2023-04-24T15:24:22;17.90;99.90
54082;DHT22;39986;50.770;0.266;2023-04-24T15:26:48;17.10;99.90
54082;DHT22;39986;50.770;0.266;2023-04-24T15:29:13;16.40;99.90
54082;DHT22;39986;50.770;0.266;2023-04-24T15:31:39;16.20;99.90
54082;DHT22;39986;50.770;0.266;2023-04-24T15:34:05;15.90;99.90
54082;DHT22;39986;50.770;0.266;2023-04-24T15:36:31;15.90;99.90
54082;DHT22;39986;50.770;0.266;2023-04-24T15:39:00;16.00;99.90